sensor_id;sensor_type;location;lat;lon;timestamp;P1;durP1;ratioP1;P2;durP2;ratioP2
74650;SDS011;63169;46.042;14.592;2024-01-27T00:00:45;17.70;;;12.27;;
74650;SDS011;63169;46.042;14.592;2024-01-27T00:03:11;14.20;;;10.02;;
74650;SDS011;63169;46.042;14.592;2024-01-27T00:05:36;15.65;;;12.13;;
74650;SDS011;63169;46.042;14.592;2024-01-27T00:08:01;20.73;;;12.35;;
74650;SDS011;63169;46.042;14.592;2024-01-27T00:10:27;20.00;;;10.35;;
74650;SDS011;63169;46.042;14.592;2024-01-27T00:12:53;24.85;;;11.55;;
74650;SDS011;63169;46.042;14.592;2024-01-27T00:15:18;20.75;;;12.55;;
74650;SDS011;63169;46.042;14.592;2024-01-27T00:17:44;21.80;;;12.30;;
74650;SDS011;63169;46.042;14.592;2024-01-27T00:20:09;17.35;;;10.07;;
74650;SDS011;63169;46.042;14.592;2024-01-27T00:22:36;22.67;;;14.60;;
74650;SDS011;63169;46.042;14.592;2024-01-27T00:25:01;23.05;;;12.10;;
74650;SDS011;63169;46.042;14.592;2024-01-27T00:27:27;22.67;;;12.02;;
74650;SDS011;63169;46.042;14.592;2024-01-27T00:29:52;21.13;;;11.68;;
74650;SDS011;63169;46.042;14.592;2024-01-27T00:32:18;18.88;;;11.15;;
74650;SDS011;63169;46.042;14.592;2024-01-27T00:34:43;26.88;;;14.30;;
74650;SDS011;63169;46.042;14.592;2024-01-27T00:37:08;17.33;;;11.60;;
74650;SDS011;63169;46.042;14.592;2024-01-27T00:39:34;18.92;;;12.45;;
74650;SDS011;63169;46.042;14.592;2024-01-27T00:41:59;21.40;;;12.75;;
74650;SDS011;63169;46.042;14.592;2024-01-27T00:44:25;22.38;;;13.88;;
74650;SDS011;63169;46.042;14.592;2024-01-27T00:46:50;15.50;;;10.15;;
74650;SDS011;63169;46.042;14.592;2024-01-27T00:49:15;19.88;;;11.63;;
74650;SDS011;63169;46.042;14.592;2024-01-27T00:51:41;20.60;;;10.05;;
74650;SDS011;63169;46.042;14.592;2024-01-27T00:54:06;18.15;;;8.35;;
74650;SDS011;63169;46.042;14.592;2024-01-27T00:56:32;15.10;;;11.15;;
74650;SDS011;63169;46.042;14.592;2024-01-27T00:58:57;15.25;;;11.43;;
74650;SDS011;63169;46.042;14.592;2024-01-27T01:01:23;18.85;;;10.90;;
74650;SDS011;63169;46.042;14.592;2024-01-27T01:03:48;18.63;;;12.02;;
74650;SDS011;63169;46.042;14.592;2024-01-27T01:06:13;15.32;;;9.95;;
74650;SDS011;63169;46.042;14.592;2024-01-27T01:08:39;18.70;;;12.32;;
74650;SDS011;63169;46.042;14.592;2024-01-27T01:11:04;19.38;;;12.35;;
74650;SDS011;63169;46.042;14.592;2024-01-27T01:13:30;17.40;;;9.00;;
74650;SDS011;63169;46.042;14.592;2024-01-27T01:15:55;20.98;;;13.27;;
74650;SDS011;63169;46.042;14.592;2024-01-27T01:18:20;18.48;;;12.68;;
74650;SDS011;63169;46.042;14.592;2024-01-27T01:20:46;27.63;;;12.23;;
74650;SDS011;63169;46.042;14.592;2024-01-27T01:23:11;18.50;;;11.18;;
74650;SDS011;63169;46.042;14.592;2024-01-27T01:25:37;19.05;;;13.60;;
74650;SDS011;63169;46.042;14.592;2024-01-27T01:28:02;24.42;;;13.73;;
74650;SDS011;63169;46.042;14.592;2024-01-27T01:30:28;23.02;;;12.77;;
74650;SDS011;63169;46.042;14.592;2024-01-27T01:32:54;23.05;;;10.65;;
74650;SDS011;63169;46.042;14.592;2024-01-27T01:35:19;19.50;;;12.55;;
74650;SDS011;63169;46.042;14.592;2024-01-27T01:37:45;20.55;;;13.43;;
74650;SDS011;63169;46.042;14.592;2024-01-27T01:40:10;15.02;;;10.98;;
74650;SDS011;63169;46.042;14.592;2024-01-27T01:42:36;21.15;;;13.68;;
74650;SDS011;63169;46.042;14.592;2024-01-27T01:45:01;17.70;;;9.50;;
74650;SDS011;63169;46.042;14.592;2024-01-27T01:47:27;16.45;;;12.77;;
74650;SDS011;63169;46.042;14.592;2024-01-27T01:49:53;17.73;;;10.77;;
74650;SDS011;63169;46.042;14.592;2024-01-27T01:52:20;17.02;;;9.55;;
74650;SDS011;63169;46.042;14.592;2024-01-27T01:54:49;26.92;;;12.23;;
74650;SDS011;63169;46.042;14.592;2024-01-27T01:57:15;20.17;;;11.27;;
74650;SDS011;63169;46.042;14.592;2024-01-27T01:59:41;26.52;;;13.30;;
74650;SDS011;63169;46.042;14.592;2024-01-27T02:02:07;23.65;;;14.27;;
74650;SDS011;63169;46.042;14.592;2024-01-27T02:04:43;24.67;;;11.73;;
74650;SDS011;63169;46.042;14.592;2024-01-27T02:07:10;22.88;;;13.15;;
74650;SDS011;63169;46.042;14.592;2024-01-27T02:09:36;21.55;;;14.63;;
74650;SDS011;63169;46.042;14.592;2024-01-27T02:12:01;21.73;;;13.48;;
74650;SDS011;63169;46.042;14.592;2024-01-27T02:14:27;20.35;;;14.88;;
74650;SDS011;63169;46.042;14.592;2024-01-27T02:16:53;15.45;;;11.60;;
74650;SDS011;63169;46.042;14.592;2024-01-27T02:19:19;20.23;;;12.90;;
74650;SDS011;63169;46.042;14.592;2024-01-27T02:21:44;25.92;;;13.57;;
74650;SDS011;63169;46.042;14.592;2024-01-27T02:24:11;18.58;;;10.27;;
74650;SDS011;63169;46.042;14.592;2024-01-27T02:26:36;19.05;;;11.05;;
74650;SDS011;63169;46.042;14.592;2024-01-27T02:29:05;13.73;;;10.60;;
74650;SDS011;63169;46.042;14.592;2024-01-27T02:31:30;18.50;;;12.20;;
74650;SDS011;63169;46.042;14.592;2024-01-27T02:33:56;15.10;;;10.48;;
74650;SDS011;63169;46.042;14.592;2024-01-27T02:36:21;15.00;;;10.85;;
74650;SDS011;63169;46.042;14.592;2024-01-27T02:38:47;18.08;;;11.48;;
74650;SDS011;63169;46.042;14.592;2024-01-27T02:41:15;15.57;;;11.20;;
74650;SDS011;63169;46.042;14.592;2024-01-27T02:43:41;15.43;;;11.18;;
74650;SDS011;63169;46.042;14.592;2024-01-27T02:46:07;19.52;;;12.05;;
74650;SDS011;63169;46.042;14.592;2024-01-27T02:48:41;16.05;;;11.73;;
74650;SDS011;63169;46.042;14.592;2024-01-27T02:51:07;14.90;;;8.73;;
74650;SDS011;63169;46.042;14.592;2024-01-27T02:53:33;21.20;;;12.18;;
74650;SDS011;63169;46.042;14.592;2024-01-27T02:55:58;17.00;;;12.25;;
74650;SDS011;63169;46.042;14.592;2024-01-27T02:58:23;14.32;;;12.05;;
74650;SDS011;63169;46.042;14.592;2024-01-27T03:00:49;17.60;;;11.68;;
74650;SDS011;63169;46.042;14.592;2024-01-27T03:03:14;18.25;;;11.45;;
74650;SDS011;63169;46.042;14.592;2024-01-27T03:05:40;19.27;;;13.65;;
74650;SDS011;63169;46.042;14.592;2024-01-27T03:08:06;17.20;;;11.27;;
74650;SDS011;63169;46.042;14.592;2024-01-27T03:10:31;16.95;;;10.45;;
74650;SDS011;63169;46.042;14.592;2024-01-27T03:12:57;15.20;;;9.55;;
74650;SDS011;63169;46.042;14.592;2024-01-27T03:15:22;19.65;;;10.82;;
74650;SDS011;63169;46.042;14.592;2024-01-27T03:17:48;19.15;;;11.73;;
74650;SDS011;63169;46.042;14.592;2024-01-27T03:20:13;16.42;;;10.32;;
74650;SDS011;63169;46.042;14.592;2024-01-27T03:22:39;18.73;;;10.25;;
74650;SDS011;63169;46.042;14.592;2024-01-27T03:25:06;13.15;;;9.73;;
74650;SDS011;63169;46.042;14.592;2024-01-27T03:27:33;14.15;;;10.07;;
74650;SDS011;63169;46.042;14.592;2024-01-27T03:29:59;15.60;;;11.63;;
74650;SDS011;63169;46.042;14.592;2024-01-27T03:32:26;17.02;;;12.20;;
74650;SDS011;63169;46.042;14.592;2024-01-27T03:34:52;14.75;;;7.65;;
74650;SDS011;63169;46.042;14.592;2024-01-27T03:37:18;20.65;;;12.30;;
74650;SDS011;63169;46.042;14.592;2024-01-27T03:39:43;19.30;;;8.45;;
74650;SDS011;63169;46.042;14.592;2024-01-27T03:42:09;16.88;;;12.18;;
74650;SDS011;63169;46.042;14.592;2024-01-27T03:44:34;22.70;;;12.75;;
74650;SDS011;63169;46.042;14.592;2024-01-27T03:47:00;15.75;;;11.73;;
74650;SDS011;63169;46.042;14.592;2024-01-27T03:49:25;15.80;;;12.15;;
74650;SDS011;63169;46.042;14.592;2024-01-27T03:51:51;17.60;;;11.18;;
74650;SDS011;63169;46.042;14.592;2024-01-27T03:54:16;16.58;;;11.10;;
74650;SDS011;63169;46.042;14.592;2024-01-27T03:56:41;13.02;;;11.13;;
74650;SDS011;63169;46.042;14.592;2024-01-27T03:59:07;18.30;;;10.50;;
74650;SDS011;63169;46.042;14.592;2024-01-27T04:01:34;16.02;;;7.72;;
74650;SDS011;63169;46.042;14.592;2024-01-27T04:04:00;15.80;;;10.80;;
74650;SDS011;63169;46.042;14.592;2024-01-27T04:06:25;15.07;;;11.32;;
74650;SDS011;63169;46.042;14.592;2024-01-27T04:08:51;17.77;;;12.15;;
74650;SDS011;63169;46.042;14.592;2024-01-27T04:11:22;17.33;;;12.30;;
74650;SDS011;63169;46.042;14.592;2024-01-27T04:13:48;15.98;;;11.35;;
74650;SDS011;63169;46.042;14.592;2024-01-27T04:16:14;16.60;;;11.40;;
74650;SDS011;63169;46.042;14.592;2024-01-27T04:18:41;13.85;;;10.63;;
74650;SDS011;63169;46.042;14.592;2024-01-27T04:21:07;18.05;;;10.68;;
74650;SDS011;63169;46.042;14.592;2024-01-27T04:23:32;16.38;;;11.75;;
74650;SDS011;63169;46.042;14.592;2024-01-27T04:25:58;18.75;;;11.95;;
74650;SDS011;63169;46.042;14.592;2024-01-27T04:28:24;24.73;;;15.43;;
74650;SDS011;63169;46.042;14.592;2024-01-27T04:30:50;22.45;;;12.98;;
74650;SDS011;63169;46.042;14.592;2024-01-27T04:33:15;19.55;;;12.63;;
74650;SDS011;63169;46.042;14.592;2024-01-27T04:35:41;23.27;;;16.48;;
74650;SDS011;63169;46.042;14.592;2024-01-27T04:38:07;17.98;;;11.98;;
74650;SDS011;63169;46.042;14.592;2024-01-27T04:40:35;19.58;;;12.60;;
74650;SDS011;63169;46.042;14.592;2024-01-27T04:43:01;20.80;;;13.30;;
74650;SDS011;63169;46.042;14.592;2024-01-27T04:45:27;16.27;;;11.75;;
74650;SDS011;63169;46.042;14.592;2024-01-27T04:47:52;18.95;;;15.10;;
74650;SDS011;63169;46.042;14.592;2024-01-27T04:50:19;19.45;;;10.85;;
74650;SDS011;63169;46.042;14.592;2024-01-27T04:52:45;15.07;;;11.40;;
74650;SDS011;63169;46.042;14.592;2024-01-27T04:55:10;15.40;;;8.15;;
74650;SDS011;63169;46.042;14.592;2024-01-27T04:57:36;16.80;;;9.98;;
74650;SDS011;63169;46.042;14.592;2024-01-27T05:00:01;16.88;;;10.75;;
74650;SDS011;63169;46.042;14.592;2024-01-27T05:02:29;15.93;;;10.93;;
74650;SDS011;63169;46.042;14.592;2024-01-27T05:04:54;21.85;;;12.25;;
74650;SDS011;63169;46.042;14.592;2024-01-27T05:07:20;16.08;;;14.27;;
74650;SDS011;63169;46.042;14.592;2024-01-27T05:09:46;19.85;;;13.23;;
74650;SDS011;63169;46.042;14.592;2024-01-27T05:12:11;16.65;;;11.98;;
74650;SDS011;63169;46.042;14.592;2024-01-27T05:14:37;18.40;;;11.40;;
74650;SDS011;63169;46.042;14.592;2024-01-27T05:17:02;16.77;;;12.93;;
74650;SDS011;63169;46.042;14.592;2024-01-27T05:19:28;18.02;;;8.20;;
74650;SDS011;63169;46.042;14.592;2024-01-27T05:21:53;18.23;;;10.88;;
74650;SDS011;63169;46.042;14.592;2024-01-27T05:24:19;17.88;;;11.10;;
74650;SDS011;63169;46.042;14.592;2024-01-27T05:26:44;15.25;;;11.98;;
74650;SDS011;63169;46.042;14.592;2024-01-27T05:29:09;18.83;;;13.95;;
74650;SDS011;63169;46.042;14.592;2024-01-27T05:31:38;19.27;;;13.90;;
74650;SDS011;63169;46.042;14.592;2024-01-27T05:34:03;16.55;;;10.18;;
74650;SDS011;63169;46.042;14.592;2024-01-27T05:36:29;18.17;;;11.55;;
74650;SDS011;63169;46.042;14.592;2024-01-27T05:38:55;17.58;;;13.43;;
74650;SDS011;63169;46.042;14.592;2024-01-27T05:41:20;17.67;;;14.20;;
74650;SDS011;63169;46.042;14.592;2024-01-27T05:43:50;22.20;;;13.90;;
74650;SDS011;63169;46.042;14.592;2024-01-27T05:46:16;19.10;;;11.63;;
74650;SDS011;63169;46.042;14.592;2024-01-27T05:48:41;20.23;;;11.82;;
74650;SDS011;63169;46.042;14.592;2024-01-27T05:51:07;12.88;;;11.52;;
74650;SDS011;63169;46.042;14.592;2024-01-27T05:53:34;20.98;;;11.68;;
74650;SDS011;63169;46.042;14.592;2024-01-27T05:56:00;18.98;;;12.02;;
74650;SDS011;63169;46.042;14.592;2024-01-27T05:58:25;16.02;;;10.13;;
74650;SDS011;63169;46.042;14.592;2024-01-27T06:00:51;16.08;;;10.80;;
74650;SDS011;63169;46.042;14.592;2024-01-27T06:03:16;16.27;;;8.57;;
74650;SDS011;63169;46.042;14.592;2024-01-27T06:05:42;16.20;;;9.02;;
74650;SDS011;63169;46.042;14.592;2024-01-27T06:08:08;12.13;;;10.25;;
74650;SDS011;63169;46.042;14.592;2024-01-27T06:10:33;13.35;;;7.43;;
74650;SDS011;63169;46.042;14.592;2024-01-27T06:13:01;14.98;;;11.73;;
74650;SDS011;63169;46.042;14.592;2024-01-27T06:15:26;13.80;;;11.57;;
74650;SDS011;63169;46.042;14.592;2024-01-27T06:17:52;16.20;;;10.68;;
74650;SDS011;63169;46.042;14.592;2024-01-27T06:20:17;18.08;;;11.52;;
74650;SDS011;63169;46.042;14.592;2024-01-27T06:22:43;15.02;;;11.35;;
74650;SDS011;63169;46.042;14.592;2024-01-27T06:25:09;17.15;;;9.35;;
74650;SDS011;63169;46.042;14.592;2024-01-27T06:27:35;12.02;;;9.43;;
74650;SDS011;63169;46.042;14.592;2024-01-27T06:30:01;15.73;;;12.10;;
74650;SDS011;63169;46.042;14.592;2024-01-27T06:32:26;16.85;;;11.98;;
74650;SDS011;63169;46.042;14.592;2024-01-27T06:34:52;17.63;;;11.07;;
74650;SDS011;63169;46.042;14.592;2024-01-27T06:37:17;15.57;;;10.82;;
74650;SDS011;63169;46.042;14.592;2024-01-27T06:39:43;14.15;;;10.52;;
74650;SDS011;63169;46.042;14.592;2024-01-27T06:42:08;20.05;;;13.50;;
74650;SDS011;63169;46.042;14.592;2024-01-27T06:44:33;16.75;;;11.15;;
74650;SDS011;63169;46.042;14.592;2024-01-27T06:46:59;20.27;;;11.88;;
74650;SDS011;63169;46.042;14.592;2024-01-27T06:49:24;17.88;;;10.88;;
74650;SDS011;63169;46.042;14.592;2024-01-27T06:51:50;17.73;;;12.07;;
74650;SDS011;63169;46.042;14.592;2024-01-27T06:54:15;13.32;;;10.45;;
74650;SDS011;63169;46.042;14.592;2024-01-27T06:56:40;17.17;;;12.10;;
74650;SDS011;63169;46.042;14.592;2024-01-27T06:59:06;14.38;;;9.25;;
74650;SDS011;63169;46.042;14.592;2024-01-27T07:01:31;13.35;;;9.32;;
74650;SDS011;63169;46.042;14.592;2024-01-27T07:03:57;19.50;;;11.02;;
74650;SDS011;63169;46.042;14.592;2024-01-27T07:06:22;16.88;;;10.23;;
74650;SDS011;63169;46.042;14.592;2024-01-27T07:08:47;15.90;;;8.93;;
74650;SDS011;63169;46.042;14.592;2024-01-27T07:11:13;14.52;;;10.68;;
74650;SDS011;63169;46.042;14.592;2024-01-27T07:13:38;23.13;;;12.70;;
74650;SDS011;63169;46.042;14.592;2024-01-27T07:16:04;16.10;;;11.07;;
74650;SDS011;63169;46.042;14.592;2024-01-27T07:18:30;15.77;;;10.57;;
74650;SDS011;63169;46.042;14.592;2024-01-27T07:20:55;16.77;;;11.10;;
74650;SDS011;63169;46.042;14.592;2024-01-27T07:23:21;19.80;;;11.32;;
74650;SDS011;63169;46.042;14.592;2024-01-27T07:25:46;18.80;;;11.35;;
74650;SDS011;63169;46.042;14.592;2024-01-27T07:28:12;15.63;;;13.68;;
74650;SDS011;63169;46.042;14.592;2024-01-27T07:30:37;19.98;;;11.43;;
74650;SDS011;63169;46.042;14.592;2024-01-27T07:33:03;16.27;;;10.57;;
74650;SDS011;63169;46.042;14.592;2024-01-27T07:35:29;16.48;;;11.65;;
74650;SDS011;63169;46.042;14.592;2024-01-27T07:37:54;19.98;;;11.88;;
74650;SDS011;63169;46.042;14.592;2024-01-27T07:40:19;21.35;;;14.50;;
74650;SDS011;63169;46.042;14.592;2024-01-27T07:42:45;22.55;;;14.65;;
74650;SDS011;63169;46.042;14.592;2024-01-27T07:45:10;19.27;;;11.70;;
74650;SDS011;63169;46.042;14.592;2024-01-27T07:47:36;15.98;;;7.53;;
74650;SDS011;63169;46.042;14.592;2024-01-27T07:50:01;22.70;;;13.75;;
74650;SDS011;63169;46.042;14.592;2024-01-27T07:52:27;20.25;;;14.25;;
74650;SDS011;63169;46.042;14.592;2024-01-27T07:54:52;17.35;;;11.65;;
74650;SDS011;63169;46.042;14.592;2024-01-27T07:57:19;19.05;;;11.63;;
74650;SDS011;63169;46.042;14.592;2024-01-27T07:59:45;16.60;;;13.45;;
74650;SDS011;63169;46.042;14.592;2024-01-27T08:02:10;19.92;;;12.50;;
74650;SDS011;63169;46.042;14.592;2024-01-27T08:04:37;19.73;;;11.00;;
74650;SDS011;63169;46.042;14.592;2024-01-27T08:07:03;17.75;;;11.93;;
74650;SDS011;63169;46.042;14.592;2024-01-27T08:09:34;19.98;;;11.80;;
74650;SDS011;63169;46.042;14.592;2024-01-27T08:12:00;15.57;;;12.13;;
74650;SDS011;63169;46.042;14.592;2024-01-27T08:14:26;16.45;;;11.27;;
74650;SDS011;63169;46.042;14.592;2024-01-27T08:16:52;18.75;;;12.95;;
74650;SDS011;63169;46.042;14.592;2024-01-27T08:19:18;17.05;;;9.45;;
74650;SDS011;63169;46.042;14.592;2024-01-27T08:24:11;12.77;;;9.35;;
74650;SDS011;63169;46.042;14.592;2024-01-27T08:26:36;12.95;;;7.07;;
74650;SDS011;63169;46.042;14.592;2024-01-27T08:29:01;13.80;;;9.15;;
74650;SDS011;63169;46.042;14.592;2024-01-27T08:31:27;17.08;;;10.55;;
74650;SDS011;63169;46.042;14.592;2024-01-27T08:33:52;14.07;;;9.48;;
74650;SDS011;63169;46.042;14.592;2024-01-27T08:36:18;14.10;;;12.70;;
74650;SDS011;63169;46.042;14.592;2024-01-27T08:38:43;19.80;;;13.50;;
74650;SDS011;63169;46.042;14.592;2024-01-27T08:41:08;15.50;;;10.95;;
74650;SDS011;63169;46.042;14.592;2024-01-27T08:43:35;16.85;;;11.05;;
74650;SDS011;63169;46.042;14.592;2024-01-27T08:46:00;19.95;;;13.27;;
74650;SDS011;63169;46.042;14.592;2024-01-27T08:48:26;19.13;;;9.48;;
74650;SDS011;63169;46.042;14.592;2024-01-27T08:50:51;17.20;;;11.93;;
74650;SDS011;63169;46.042;14.592;2024-01-27T08:53:17;21.15;;;14.13;;
74650;SDS011;63169;46.042;14.592;2024-01-27T08:55:42;22.85;;;15.48;;
74650;SDS011;63169;46.042;14.592;2024-01-27T08:58:08;21.98;;;11.52;;
74650;SDS011;63169;46.042;14.592;2024-01-27T09:00:33;20.35;;;13.57;;
74650;SDS011;63169;46.042;14.592;2024-01-27T09:02:58;19.08;;;14.48;;
74650;SDS011;63169;46.042;14.592;2024-01-27T09:05:24;18.85;;;12.30;;
74650;SDS011;63169;46.042;14.592;2024-01-27T09:07:49;27.38;;;13.85;;
74650;SDS011;63169;46.042;14.592;2024-01-27T09:10:15;25.00;;;16.38;;
74650;SDS011;63169;46.042;14.592;2024-01-27T09:12:41;25.42;;;15.45;;
74650;SDS011;63169;46.042;14.592;2024-01-27T09:15:07;24.42;;;13.85;;
74650;SDS011;63169;46.042;14.592;2024-01-27T09:17:33;18.92;;;12.70;;
74650;SDS011;63169;46.042;14.592;2024-01-27T09:19:58;24.13;;;12.77;;
74650;SDS011;63169;46.042;14.592;2024-01-27T09:22:23;23.33;;;11.13;;
74650;SDS011;63169;46.042;14.592;2024-01-27T09:24:50;20.25;;;14.75;;
74650;SDS011;63169;46.042;14.592;2024-01-27T09:27:16;20.55;;;12.73;;
74650;SDS011;63169;46.042;14.592;2024-01-27T09:29:42;18.85;;;11.25;;
74650;SDS011;63169;46.042;14.592;2024-01-27T09:32:08;22.88;;;13.82;;
74650;SDS011;63169;46.042;14.592;2024-01-27T09:34:33;26.73;;;15.35;;
74650;SDS011;63169;46.042;14.592;2024-01-27T09:36:59;26.15;;;18.05;;
74650;SDS011;63169;46.042;14.592;2024-01-27T09:39:25;26.65;;;14.65;;
74650;SDS011;63169;46.042;14.592;2024-01-27T09:41:50;20.88;;;14.73;;
74650;SDS011;63169;46.042;14.592;2024-01-27T09:44:17;22.27;;;15.68;;
74650;SDS011;63169;46.042;14.592;2024-01-27T09:46:44;27.67;;;15.00;;
74650;SDS011;63169;46.042;14.592;2024-01-27T09:49:10;26.73;;;14.35;;
74650;SDS011;63169;46.042;14.592;2024-01-27T09:51:38;27.10;;;16.92;;
74650;SDS011;63169;46.042;14.592;2024-01-27T09:54:03;26.42;;;16.73;;
74650;SDS011;63169;46.042;14.592;2024-01-27T09:56:29;25.95;;;15.55;;
74650;SDS011;63169;46.042;14.592;2024-01-27T09:58:54;28.27;;;15.95;;
74650;SDS011;63169;46.042;14.592;2024-01-27T10:01:20;25.55;;;15.43;;
74650;SDS011;63169;46.042;14.592;2024-01-27T10:03:47;29.00;;;12.85;;
74650;SDS011;63169;46.042;14.592;2024-01-27T10:06:12;29.88;;;16.33;;
74650;SDS011;63169;46.042;14.592;2024-01-27T10:08:39;26.55;;;17.08;;
74650;SDS011;63169;46.042;14.592;2024-01-27T10:11:08;28.20;;;18.58;;
74650;SDS011;63169;46.042;14.592;2024-01-27T10:13:34;31.20;;;17.92;;
74650;SDS011;63169;46.042;14.592;2024-01-27T10:16:04;26.48;;;16.55;;
74650;SDS011;63169;46.042;14.592;2024-01-27T10:18:31;27.33;;;14.77;;
74650;SDS011;63169;46.042;14.592;2024-01-27T10:20:57;30.50;;;17.92;;
74650;SDS011;63169;46.042;14.592;2024-01-27T10:23:23;22.52;;;15.75;;
74650;SDS011;63169;46.042;14.592;2024-01-27T10:25:48;27.75;;;16.10;;
74650;SDS011;63169;46.042;14.592;2024-01-27T10:28:14;24.90;;;16.35;;
74650;SDS011;63169;46.042;14.592;2024-01-27T10:30:39;29.05;;;16.90;;
74650;SDS011;63169;46.042;14.592;2024-01-27T10:33:07;30.58;;;18.17;;
74650;SDS011;63169;46.042;14.592;2024-01-27T10:35:33;34.13;;;20.13;;
74650;SDS011;63169;46.042;14.592;2024-01-27T10:37:59;28.02;;;19.60;;
74650;SDS011;63169;46.042;14.592;2024-01-27T10:40:24;28.88;;;19.98;;
74650;SDS011;63169;46.042;14.592;2024-01-27T10:43:08;32.03;;;21.27;;
74650;SDS011;63169;46.042;14.592;2024-01-27T10:45:39;31.50;;;17.83;;
74650;SDS011;63169;46.042;14.592;2024-01-27T10:48:06;32.22;;;18.65;;
74650;SDS011;63169;46.042;14.592;2024-01-27T10:50:34;25.92;;;18.55;;
74650;SDS011;63169;46.042;14.592;2024-01-27T10:53:02;35.05;;;20.65;;
74650;SDS011;63169;46.042;14.592;2024-01-27T10:55:30;26.65;;;15.82;;
74650;SDS011;63169;46.042;14.592;2024-01-27T10:57:55;35.13;;;19.65;;
74650;SDS011;63169;46.042;14.592;2024-01-27T11:00:21;29.67;;;15.32;;
74650;SDS011;63169;46.042;14.592;2024-01-27T11:02:49;27.85;;;19.90;;
74650;SDS011;63169;46.042;14.592;2024-01-27T11:05:18;28.60;;;19.42;;
74650;SDS011;63169;46.042;14.592;2024-01-27T11:10:10;28.35;;;16.02;;
74650;SDS011;63169;46.042;14.592;2024-01-27T11:12:35;29.10;;;19.45;;
74650;SDS011;63169;46.042;14.592;2024-01-27T11:15:01;30.33;;;17.08;;
74650;SDS011;63169;46.042;14.592;2024-01-27T11:17:27;26.60;;;17.40;;
74650;SDS011;63169;46.042;14.592;2024-01-27T11:19:53;33.17;;;17.52;;
74650;SDS011;63169;46.042;14.592;2024-01-27T11:22:25;31.60;;;19.50;;
74650;SDS011;63169;46.042;14.592;2024-01-27T11:24:51;29.10;;;19.20;;
74650;SDS011;63169;46.042;14.592;2024-01-27T11:27:17;28.20;;;19.23;;
74650;SDS011;63169;46.042;14.592;2024-01-27T11:29:46;31.25;;;20.98;;
74650;SDS011;63169;46.042;14.592;2024-01-27T11:32:13;34.67;;;21.88;;
74650;SDS011;63169;46.042;14.592;2024-01-27T11:34:42;31.30;;;20.77;;
74650;SDS011;63169;46.042;14.592;2024-01-27T11:37:14;34.03;;;19.15;;
74650;SDS011;63169;46.042;14.592;2024-01-27T11:39:40;30.27;;;19.85;;
74650;SDS011;63169;46.042;14.592;2024-01-27T11:42:06;32.70;;;18.52;;
74650;SDS011;63169;46.042;14.592;2024-01-27T11:44:36;27.67;;;19.63;;
74650;SDS011;63169;46.042;14.592;2024-01-27T11:47:02;29.42;;;19.48;;
74650;SDS011;63169;46.042;14.592;2024-01-27T11:49:28;29.73;;;18.20;;
74650;SDS011;63169;46.042;14.592;2024-01-27T11:51:53;26.90;;;18.15;;
74650;SDS011;63169;46.042;14.592;2024-01-27T11:54:19;25.05;;;15.18;;
74650;SDS011;63169;46.042;14.592;2024-01-27T11:56:44;31.08;;;18.50;;
74650;SDS011;63169;46.042;14.592;2024-01-27T11:59:10;30.23;;;17.88;;
74650;SDS011;63169;46.042;14.592;2024-01-27T12:01:36;30.35;;;18.67;;
74650;SDS011;63169;46.042;14.592;2024-01-27T12:04:02;29.40;;;18.58;;
74650;SDS011;63169;46.042;14.592;2024-01-27T12:08:55;29.80;;;17.08;;
74650;SDS011;63169;46.042;14.592;2024-01-27T12:11:22;34.00;;;17.88;;
74650;SDS011;63169;46.042;14.592;2024-01-27T12:13:51;27.50;;;18.17;;
74650;SDS011;63169;46.042;14.592;2024-01-27T12:16:17;57.35;;;33.90;;
74650;SDS011;63169;46.042;14.592;2024-01-27T12:18:43;54.03;;;30.85;;
74650;SDS011;63169;46.042;14.592;2024-01-27T12:21:11;32.17;;;20.65;;
74650;SDS011;63169;46.042;14.592;2024-01-27T12:23:48;30.05;;;21.48;;
74650;SDS011;63169;46.042;14.592;2024-01-27T12:26:16;31.35;;;21.00;;
74650;SDS011;63169;46.042;14.592;2024-01-27T12:28:45;35.63;;;21.48;;
74650;SDS011;63169;46.042;14.592;2024-01-27T12:31:11;29.77;;;19.55;;
74650;SDS011;63169;46.042;14.592;2024-01-27T12:33:36;36.28;;;21.13;;
74650;SDS011;63169;46.042;14.592;2024-01-27T12:36:02;34.90;;;22.90;;
74650;SDS011;63169;46.042;14.592;2024-01-27T12:38:27;32.15;;;21.25;;
74650;SDS011;63169;46.042;14.592;2024-01-27T12:40:53;39.55;;;22.50;;
74650;SDS011;63169;46.042;14.592;2024-01-27T12:43:18;48.42;;;26.67;;
74650;SDS011;63169;46.042;14.592;2024-01-27T12:45:44;42.22;;;25.27;;
74650;SDS011;63169;46.042;14.592;2024-01-27T12:48:09;40.53;;;24.52;;
74650;SDS011;63169;46.042;14.592;2024-01-27T12:50:34;40.67;;;24.50;;
74650;SDS011;63169;46.042;14.592;2024-01-27T12:53:00;38.97;;;23.50;;
74650;SDS011;63169;46.042;14.592;2024-01-27T12:55:25;33.80;;;23.42;;
74650;SDS011;63169;46.042;14.592;2024-01-27T12:57:51;39.90;;;24.33;;
74650;SDS011;63169;46.042;14.592;2024-01-27T13:00:16;31.98;;;22.40;;
74650;SDS011;63169;46.042;14.592;2024-01-27T13:02:42;35.70;;;20.98;;
74650;SDS011;63169;46.042;14.592;2024-01-27T13:05:08;37.58;;;23.75;;
74650;SDS011;63169;46.042;14.592;2024-01-27T13:07:34;33.88;;;20.48;;
74650;SDS011;63169;46.042;14.592;2024-01-27T13:10:00;33.33;;;22.77;;
74650;SDS011;63169;46.042;14.592;2024-01-27T13:12:25;35.88;;;22.95;;
74650;SDS011;63169;46.042;14.592;2024-01-27T13:14:51;40.05;;;23.27;;
74650;SDS011;63169;46.042;14.592;2024-01-27T13:17:16;39.25;;;23.85;;
74650;SDS011;63169;46.042;14.592;2024-01-27T13:19:42;34.80;;;22.05;;
74650;SDS011;63169;46.042;14.592;2024-01-27T13:22:07;36.17;;;22.77;;
74650;SDS011;63169;46.042;14.592;2024-01-27T13:24:33;38.53;;;21.60;;
74650;SDS011;63169;46.042;14.592;2024-01-27T13:26:58;33.85;;;22.60;;
74650;SDS011;63169;46.042;14.592;2024-01-27T13:29:25;35.70;;;22.23;;
74650;SDS011;63169;46.042;14.592;2024-01-27T13:34:17;27.77;;;20.58;;
74650;SDS011;63169;46.042;14.592;2024-01-27T13:36:43;37.22;;;22.33;;
74650;SDS011;63169;46.042;14.592;2024-01-27T13:39:08;38.70;;;23.52;;
74650;SDS011;63169;46.042;14.592;2024-01-27T13:41:33;46.17;;;28.02;;
74650;SDS011;63169;46.042;14.592;2024-01-27T13:43:59;40.40;;;27.35;;
74650;SDS011;63169;46.042;14.592;2024-01-27T13:46:24;40.50;;;23.40;;
74650;SDS011;63169;46.042;14.592;2024-01-27T13:48:50;37.78;;;24.42;;
74650;SDS011;63169;46.042;14.592;2024-01-27T13:51:16;37.67;;;23.95;;
74650;SDS011;63169;46.042;14.592;2024-01-27T13:53:41;36.80;;;22.75;;
74650;SDS011;63169;46.042;14.592;2024-01-27T13:56:07;36.55;;;23.88;;
74650;SDS011;63169;46.042;14.592;2024-01-27T13:58:32;33.78;;;24.45;;
74650;SDS011;63169;46.042;14.592;2024-01-27T14:00:58;39.85;;;24.92;;
74650;SDS011;63169;46.042;14.592;2024-01-27T14:03:23;37.22;;;23.55;;
74650;SDS011;63169;46.042;14.592;2024-01-27T14:05:49;37.58;;;23.20;;
74650;SDS011;63169;46.042;14.592;2024-01-27T14:08:14;36.83;;;22.55;;
74650;SDS011;63169;46.042;14.592;2024-01-27T14:10:42;37.40;;;22.15;;
74650;SDS011;63169;46.042;14.592;2024-01-27T14:13:08;34.70;;;22.27;;